sensor_id;sensor_type;location;lat;lon;timestamp;P1;durP1;ratioP1;P2;durP2;ratioP2
17228;SDS011;8731;50.364;8.958;2022-07-23T00:01:13;5.37;;;4.83;;
17228;SDS011;8731;50.364;8.958;2022-07-23T00:05:35;6.93;;;5.00;;
17228;SDS011;8731;50.364;8.958;2022-07-23T00:09:57;5.00;;;4.50;;
17228;SDS011;8731;50.364;8.958;2022-07-23T00:14:20;5.67;;;5.00;;
17228;SDS011;8731;50.364;8.958;2022-07-23T00:18:43;6.67;;;5.20;;
17228;SDS011;8731;50.364;8.958;2022-07-23T00:23:05;6.43;;;5.00;;
17228;SDS011;8731;50.364;8.958;2022-07-23T00:27:28;7.37;;;5.40;;
17228;SDS011;8731;50.364;8.958;2022-07-23T00:31:50;6.97;;;5.30;;
17228;SDS011;8731;50.364;8.958;2022-07-23T00:36:14;5.73;;;4.80;;
17228;SDS011;8731;50.364;8.958;2022-07-23T00:40:37;5.50;;;4.70;;
17228;SDS011;8731;50.364;8.958;2022-07-23T00:44:59;5.50;;;5.00;;
17228;SDS011;8731;50.364;8.958;2022-07-23T00:49:22;6.83;;;5.57;;
17228;SDS011;8731;50.364;8.958;2022-07-23T00:53:48;6.03;;;5.43;;
17228;SDS011;8731;50.364;8.958;2022-07-23T00:58:11;5.03;;;4.53;;
17228;SDS011;8731;50.364;8.958;2022-07-23T01:02:33;5.80;;;5.20;;
17228;SDS011;8731;50.364;8.958;2022-07-23T01:06:56;7.23;;;5.60;;
17228;SDS011;8731;50.364;8.958;2022-07-23T01:11:20;6.13;;;5.53;;
17228;SDS011;8731;50.364;8.958;2022-07-23T01:15:44;7.27;;;6.07;;
17228;SDS011;8731;50.364;8.958;2022-07-23T01:20:07;6.07;;;5.47;;
17228;SDS011;8731;50.364;8.958;2022-07-23T01:24:32;7.60;;;6.43;;
17228;SDS011;8731;50.364;8.958;2022-07-23T01:28:57;9.13;;;7.03;;
17228;SDS011;8731;50.364;8.958;2022-07-23T01:33:20;7.10;;;6.40;;
17228;SDS011;8731;50.364;8.958;2022-07-23T01:37:43;7.80;;;6.53;;
17228;SDS011;8731;50.364;8.958;2022-07-23T01:42:08;7.47;;;6.53;;
17228;SDS011;8731;50.364;8.958;2022-07-23T01:46:31;9.67;;;6.57;;
17228;SDS011;8731;50.364;8.958;2022-07-23T01:50:54;6.73;;;6.13;;
17228;SDS011;8731;50.364;8.958;2022-07-23T01:55:27;8.33;;;6.53;;
17228;SDS011;8731;50.364;8.958;2022-07-23T01:59:51;9.00;;;7.00;;
17228;SDS011;8731;50.364;8.958;2022-07-23T02:04:15;7.80;;;7.00;;
17228;SDS011;8731;50.364;8.958;2022-07-23T02:08:38;8.00;;;6.67;;
17228;SDS011;8731;50.364;8.958;2022-07-23T02:13:00;8.13;;;7.27;;
17228;SDS011;8731;50.364;8.958;2022-07-23T02:17:24;7.03;;;6.33;;
17228;SDS011;8731;50.364;8.958;2022-07-23T02:21:47;8.00;;;6.80;;
17228;SDS011;8731;50.364;8.958;2022-07-23T02:26:13;7.60;;;6.80;;
17228;SDS011;8731;50.364;8.958;2022-07-23T02:30:35;8.10;;;7.17;;
17228;SDS011;8731;50.364;8.958;2022-07-23T02:34:59;9.43;;;7.10;;
17228;SDS011;8731;50.364;8.958;2022-07-23T02:39:22;9.73;;;8.03;;
17228;SDS011;8731;50.364;8.958;2022-07-23T02:43:44;8.17;;;7.47;;
17228;SDS011;8731;50.364;8.958;2022-07-23T02:48:09;10.97;;;8.27;;
17228;SDS011;8731;50.364;8.958;2022-07-23T02:52:34;10.07;;;7.80;;
17228;SDS011;8731;50.364;8.958;2022-07-23T02:56:56;9.20;;;8.30;;
17228;SDS011;8731;50.364;8.958;2022-07-23T03:01:20;8.67;;;7.77;;
17228;SDS011;8731;50.364;8.958;2022-07-23T03:05:42;10.00;;;9.00;;
17228;SDS011;8731;50.364;8.958;2022-07-23T03:10:07;9.97;;;8.97;;
17228;SDS011;8731;50.364;8.958;2022-07-23T03:14:30;9.40;;;8.50;;
17228;SDS011;8731;50.364;8.958;2022-07-23T03:18:52;10.10;;;8.93;;
17228;SDS011;8731;50.364;8.958;2022-07-23T03:23:15;11.00;;;9.00;;
17228;SDS011;8731;50.364;8.958;2022-07-23T03:27:39;10.67;;;9.67;;
17228;SDS011;8731;50.364;8.958;2022-07-23T03:32:03;12.03;;;9.47;;
17228;SDS011;8731;50.364;8.958;2022-07-23T03:36:26;13.57;;;9.93;;
17228;SDS011;8731;50.364;8.958;2022-07-23T03:40:50;11.40;;;10.30;;
17228;SDS011;8731;50.364;8.958;2022-07-23T03:45:13;11.63;;;10.43;;
17228;SDS011;8731;50.364;8.958;2022-07-23T03:49:36;12.57;;;10.20;;
17228;SDS011;8731;50.364;8.958;2022-07-23T03:53:58;11.17;;;9.97;;
17228;SDS011;8731;50.364;8.958;2022-07-23T03:58:21;11.40;;;10.20;;
17228;SDS011;8731;50.364;8.958;2022-07-23T04:02:44;12.57;;;10.67;;
17228;SDS011;8731;50.364;8.958;2022-07-23T04:07:07;13.00;;;10.17;;
17228;SDS011;8731;50.364;8.958;2022-07-23T04:11:29;14.73;;;10.70;;
17228;SDS011;8731;50.364;8.958;2022-07-23T04:15:52;11.87;;;10.00;;
17228;SDS011;8731;50.364;8.958;2022-07-23T04:20:16;12.37;;;10.77;;
17228;SDS011;8731;50.364;8.958;2022-07-23T04:24:46;11.23;;;9.90;;
17228;SDS011;8731;50.364;8.958;2022-07-23T04:29:09;12.03;;;10.37;;
17228;SDS011;8731;50.364;8.958;2022-07-23T04:33:32;13.00;;;10.90;;
17228;SDS011;8731;50.364;8.958;2022-07-23T04:38:00;12.07;;;10.87;;
17228;SDS011;8731;50.364;8.958;2022-07-23T04:42:23;13.37;;;10.30;;
17228;SDS011;8731;50.364;8.958;2022-07-23T04:46:46;11.00;;;9.67;;
17228;SDS011;8731;50.364;8.958;2022-07-23T04:51:08;10.47;;;9.47;;
17228;SDS011;8731;50.364;8.958;2022-07-23T04:55:32;11.73;;;9.83;;
17228;SDS011;8731;50.364;8.958;2022-07-23T04:59:55;10.63;;;9.53;;
17228;SDS011;8731;50.364;8.958;2022-07-23T05:04:17;10.47;;;9.47;;
17228;SDS011;8731;50.364;8.958;2022-07-23T05:08:41;10.30;;;9.30;;
17228;SDS011;8731;50.364;8.958;2022-07-23T05:13:06;12.80;;;9.23;;
17228;SDS011;8731;50.364;8.958;2022-07-23T05:17:28;9.80;;;8.57;;
17228;SDS011;8731;50.364;8.958;2022-07-23T05:21:50;9.53;;;8.63;;
17228;SDS011;8731;50.364;8.958;2022-07-23T05:26:13;9.77;;;8.87;;
17228;SDS011;8731;50.364;8.958;2022-07-23T05:30:36;9.90;;;8.90;;
17228;SDS011;8731;50.364;8.958;2022-07-23T05:35:01;9.50;;;8.50;;
17228;SDS011;8731;50.364;8.958;2022-07-23T05:39:24;9.33;;;8.03;;
17228;SDS011;8731;50.364;8.958;2022-07-23T05:43:47;8.83;;;7.53;;
17228;SDS011;8731;50.364;8.958;2022-07-23T05:48:10;10.10;;;7.47;;
17228;SDS011;8731;50.364;8.958;2022-07-23T05:52:43;8.57;;;7.60;;
17228;SDS011;8731;50.364;8.958;2022-07-23T05:57:22;8.13;;;7.37;;
17228;SDS011;8731;50.364;8.958;2022-07-23T06:01:44;7.93;;;6.47;;
17228;SDS011;8731;50.364;8.958;2022-07-23T06:06:08;8.17;;;6.60;;
17228;SDS011;8731;50.364;8.958;2022-07-23T06:10:30;7.13;;;6.43;;
17228;SDS011;8731;50.364;8.958;2022-07-23T06:14:53;7.80;;;7.10;;
17228;SDS011;8731;50.364;8.958;2022-07-23T06:19:15;9.30;;;6.57;;
17228;SDS011;8731;50.364;8.958;2022-07-23T06:23:39;7.67;;;6.83;;
17228;SDS011;8731;50.364;8.958;2022-07-23T06:28:02;7.23;;;6.50;;
17228;SDS011;8731;50.364;8.958;2022-07-23T06:32:25;8.07;;;6.87;;
17228;SDS011;8731;50.364;8.958;2022-07-23T06:36:47;6.90;;;6.23;;
17228;SDS011;8731;50.364;8.958;2022-07-23T06:41:10;7.30;;;6.00;;
17228;SDS011;8731;50.364;8.958;2022-07-23T06:45:33;6.60;;;5.90;;
17228;SDS011;8731;50.364;8.958;2022-07-23T06:49:56;6.07;;;5.50;;
17228;SDS011;8731;50.364;8.958;2022-07-23T06:54:19;6.63;;;6.00;;
17228;SDS011;8731;50.364;8.958;2022-07-23T06:58:43;11.23;;;6.20;;
17228;SDS011;8731;50.364;8.958;2022-07-23T07:03:05;5.70;;;5.00;;
17228;SDS011;8731;50.364;8.958;2022-07-23T07:07:27;6.27;;;5.67;;
17228;SDS011;8731;50.364;8.958;2022-07-23T07:11:50;5.90;;;5.30;;
17228;SDS011;8731;50.364;8.958;2022-07-23T07:16:14;6.03;;;5.43;;
17228;SDS011;8731;50.364;8.958;2022-07-23T07:20:37;6.73;;;6.03;;
17228;SDS011;8731;50.364;8.958;2022-07-23T07:24:59;7.53;;;5.40;;
17228;SDS011;8731;50.364;8.958;2022-07-23T07:29:21;5.00;;;4.50;;
17228;SDS011;8731;50.364;8.958;2022-07-23T07:33:45;6.23;;;5.10;;
17228;SDS011;8731;50.364;8.958;2022-07-23T07:38:07;5.47;;;4.97;;
17228;SDS011;8731;50.364;8.958;2022-07-23T07:42:30;6.17;;;5.57;;
17228;SDS011;8731;50.364;8.958;2022-07-23T07:46:52;6.00;;;5.40;;
17228;SDS011;8731;50.364;8.958;2022-07-23T07:51:16;5.53;;;4.97;;
17228;SDS011;8731;50.364;8.958;2022-07-23T07:55:38;6.50;;;5.30;;
17228;SDS011;8731;50.364;8.958;2022-07-23T08:00:01;6.00;;;5.10;;
17228;SDS011;8731;50.364;8.958;2022-07-23T08:04:32;9.83;;;5.00;;
17228;SDS011;8731;50.364;8.958;2022-07-23T08:08:55;6.97;;;4.70;;
17228;SDS011;8731;50.364;8.958;2022-07-23T08:13:18;6.00;;;5.03;;
17228;SDS011;8731;50.364;8.958;2022-07-23T08:17:40;6.27;;;4.40;;
17228;SDS011;8731;50.364;8.958;2022-07-23T08:22:03;5.60;;;4.70;;
17228;SDS011;8731;50.364;8.958;2022-07-23T08:26:27;4.70;;;4.30;;
17228;SDS011;8731;50.364;8.958;2022-07-23T08:30:49;6.60;;;5.37;;
17228;SDS011;8731;50.364;8.958;2022-07-23T08:35:12;5.50;;;4.60;;
17228;SDS011;8731;50.364;8.958;2022-07-23T08:39:34;5.20;;;4.70;;
17228;SDS011;8731;50.364;8.958;2022-07-23T08:43:58;4.68;;;4.25;;
17228;SDS011;8731;50.364;8.958;2022-07-23T08:48:22;5.30;;;4.53;;
17228;SDS011;8731;50.364;8.958;2022-07-23T08:52:48;6.13;;;4.35;;
17228;SDS011;8731;50.364;8.958;2022-07-23T08:57:11;5.65;;;4.30;;
17228;SDS011;8731;50.364;8.958;2022-07-23T09:01:35;4.93;;;4.32;;
17228;SDS011;8731;50.364;8.958;2022-07-23T09:05:58;5.07;;;3.85;;
17228;SDS011;8731;50.364;8.958;2022-07-23T09:10:22;4.20;;;3.90;;
17228;SDS011;8731;50.364;8.958;2022-07-23T09:14:44;4.30;;;3.78;;
17228;SDS011;8731;50.364;8.958;2022-07-23T09:19:09;5.35;;;4.45;;
17228;SDS011;8731;50.364;8.958;2022-07-23T09:23:36;4.50;;;4.07;;
17228;SDS011;8731;50.364;8.958;2022-07-23T09:28:00;4.93;;;4.28;;
17228;SDS011;8731;50.364;8.958;2022-07-23T09:32:23;6.22;;;3.97;;
17228;SDS011;8731;50.364;8.958;2022-07-23T09:36:47;4.90;;;4.22;;
17228;SDS011;8731;50.364;8.958;2022-07-23T09:41:10;4.93;;;3.70;;
17228;SDS011;8731;50.364;8.958;2022-07-23T09:45:33;3.55;;;3.25;;
17228;SDS011;8731;50.364;8.958;2022-07-23T09:49:59;4.82;;;3.10;;
17228;SDS011;8731;50.364;8.958;2022-07-23T09:54:28;4.13;;;3.72;;
17228;SDS011;8731;50.364;8.958;2022-07-23T09:58:54;4.40;;;3.63;;
17228;SDS011;8731;50.364;8.958;2022-07-23T10:03:24;4.10;;;3.00;;
17228;SDS011;8731;50.364;8.958;2022-07-23T10:08:07;4.13;;;3.15;;
17228;SDS011;8731;50.364;8.958;2022-07-23T10:12:55;3.53;;;3.20;;
17228;SDS011;8731;50.364;8.958;2022-07-23T10:17:36;4.65;;;3.25;;
17228;SDS011;8731;50.364;8.958;2022-07-23T10:21:59;2.90;;;2.70;;
17228;SDS011;8731;50.364;8.958;2022-07-23T10:26:26;2.95;;;2.65;;
17228;SDS011;8731;50.364;8.958;2022-07-23T10:31:02;4.90;;;3.00;;
17228;SDS011;8731;50.364;8.958;2022-07-23T10:35:36;6.70;;;3.00;;
17228;SDS011;8731;50.364;8.958;2022-07-23T10:40:11;3.17;;;2.60;;
17228;SDS011;8731;50.364;8.958;2022-07-23T10:44:38;4.55;;;2.90;;
17228;SDS011;8731;50.364;8.958;2022-07-23T10:53:54;4.18;;;3.20;;
17228;SDS011;8731;50.364;8.958;2022-07-23T10:58:23;3.17;;;2.97;;
17228;SDS011;8731;50.364;8.958;2022-07-23T11:08:14;3.30;;;3.00;;
17228;SDS011;8731;50.364;8.958;2022-07-23T11:12:39;3.20;;;2.88;;
17228;SDS011;8731;50.364;8.958;2022-07-23T11:17:02;4.32;;;3.00;;
17228;SDS011;8731;50.364;8.958;2022-07-23T11:21:41;3.40;;;3.10;;
17228;SDS011;8731;50.364;8.958;2022-07-23T11:31:17;3.30;;;3.00;;
17228;SDS011;8731;50.364;8.958;2022-07-23T11:35:40;5.03;;;3.25;;
17228;SDS011;8731;50.364;8.958;2022-07-23T11:40:06;4.00;;;3.70;;
17228;SDS011;8731;50.364;8.958;2022-07-23T11:44:34;4.93;;;3.75;;
17228;SDS011;8731;50.364;8.958;2022-07-23T11:49:01;3.95;;;3.65;;
17228;SDS011;8731;50.364;8.958;2022-07-23T11:53:25;4.40;;;3.80;;
17228;SDS011;8731;50.364;8.958;2022-07-23T11:57:50;4.35;;;3.95;;
17228;SDS011;8731;50.364;8.958;2022-07-23T12:02:15;4.90;;;4.13;;
17228;SDS011;8731;50.364;8.958;2022-07-23T12:06:37;5.45;;;4.03;;
17228;SDS011;8731;50.364;8.958;2022-07-23T12:11:00;4.25;;;3.63;;
17228;SDS011;8731;50.364;8.958;2022-07-23T12:15:23;4.45;;;3.75;;
17228;SDS011;8731;50.364;8.958;2022-07-23T12:19:51;4.45;;;4.05;;
17228;SDS011;8731;50.364;8.958;2022-07-23T12:24:15;4.40;;;4.00;;
17228;SDS011;8731;50.364;8.958;2022-07-23T12:28:37;6.13;;;4.30;;
17228;SDS011;8731;50.364;8.958;2022-07-23T12:33:00;4.65;;;4.22;;
17228;SDS011;8731;50.364;8.958;2022-07-23T12:37:27;4.70;;;4.30;;
17228;SDS011;8731;50.364;8.958;2022-07-23T12:41:52;6.25;;;4.07;;
17228;SDS011;8731;50.364;8.958;2022-07-23T12:46:17;4.53;;;4.13;;
17228;SDS011;8731;50.364;8.958;2022-07-23T12:50:44;4.60;;;4.20;;
17228;SDS011;8731;50.364;8.958;2022-07-23T12:55:27;5.07;;;3.95;;
17228;SDS011;8731;50.364;8.958;2022-07-23T12:59:50;5.65;;;4.88;;
17228;SDS011;8731;50.364;8.958;2022-07-23T13:04:13;6.70;;;4.18;;
17228;SDS011;8731;50.364;8.958;2022-07-23T13:08:39;4.55;;;4.15;;
17228;SDS011;8731;50.364;8.958;2022-07-23T13:13:03;5.85;;;4.32;;
17228;SDS011;8731;50.364;8.958;2022-07-23T13:17:30;4.82;;;4.35;;
17228;SDS011;8731;50.364;8.958;2022-07-23T13:21:53;6.15;;;4.13;;
17228;SDS011;8731;50.364;8.958;2022-07-23T13:26:15;4.72;;;4.32;;
17228;SDS011;8731;50.364;8.958;2022-07-23T13:30:40;4.70;;;4.00;;
17228;SDS011;8731;50.364;8.958;2022-07-23T13:35:03;4.07;;;3.78;;
17228;SDS011;8731;50.364;8.958;2022-07-23T13:39:26;4.90;;;4.47;;
17228;SDS011;8731;50.364;8.958;2022-07-23T13:43:49;5.15;;;4.32;;
17228;SDS011;8731;50.364;8.958;2022-07-23T13:48:13;4.55;;;4.15;;
17228;SDS011;8731;50.364;8.958;2022-07-23T13:52:36;4.63;;;4.22;;
17228;SDS011;8731;50.364;8.958;2022-07-23T13:56:59;5.18;;;4.15;;
17228;SDS011;8731;50.364;8.958;2022-07-23T14:01:21;5.03;;;4.53;;
17228;SDS011;8731;50.364;8.958;2022-07-23T14:05:45;5.03;;;4.53;;
17228;SDS011;8731;50.364;8.958;2022-07-23T14:10:07;4.80;;;4.38;;
17228;SDS011;8731;50.364;8.958;2022-07-23T14:14:30;3.90;;;3.60;;
17228;SDS011;8731;50.364;8.958;2022-07-23T14:18:53;5.13;;;3.78;;
17228;SDS011;8731;50.364;8.958;2022-07-23T14:23:16;4.85;;;4.30;;
17228;SDS011;8731;50.364;8.958;2022-07-23T14:27:39;6.50;;;4.30;;
17228;SDS011;8731;50.364;8.958;2022-07-23T14:32:01;4.70;;;4.30;;
17228;SDS011;8731;50.364;8.958;2022-07-23T14:36:25;4.65;;;4.15;;
17228;SDS011;8731;50.364;8.958;2022-07-23T14:40:49;5.05;;;4.10;;
17228;SDS011;8731;50.364;8.958;2022-07-23T14:45:11;6.18;;;4.57;;
17228;SDS011;8731;50.364;8.958;2022-07-23T14:49:34;4.35;;;4.00;;
17228;SDS011;8731;50.364;8.958;2022-07-23T14:53:56;4.78;;;4.32;;
17228;SDS011;8731;50.364;8.958;2022-07-23T14:58:20;4.88;;;3.90;;
17228;SDS011;8731;50.364;8.958;2022-07-23T15:02:42;7.10;;;4.22;;
17228;SDS011;8731;50.364;8.958;2022-07-23T15:07:05;4.68;;;3.80;;
17228;SDS011;8731;50.364;8.958;2022-07-23T15:11:27;4.23;;;3.80;;
17228;SDS011;8731;50.364;8.958;2022-07-23T15:15:55;5.50;;;4.13;;
17228;SDS011;8731;50.364;8.958;2022-07-23T15:20:17;3.67;;;3.30;;
17228;SDS011;8731;50.364;8.958;2022-07-23T15:24:39;3.80;;;3.50;;
17228;SDS011;8731;50.364;8.958;2022-07-23T15:29:01;4.60;;;3.30;;
17228;SDS011;8731;50.364;8.958;2022-07-23T15:33:27;4.13;;;3.83;;
17228;SDS011;8731;50.364;8.958;2022-07-23T15:37:49;3.40;;;3.10;;
17228;SDS011;8731;50.364;8.958;2022-07-23T15:42:12;5.53;;;3.20;;
17228;SDS011;8731;50.364;8.958;2022-07-23T15:46:34;3.37;;;3.07;;
17228;SDS011;8731;50.364;8.958;2022-07-23T15:50:58;5.87;;;3.50;;
17228;SDS011;8731;50.364;8.958;2022-07-23T15:55:21;4.97;;;3.30;;
17228;SDS011;8731;50.364;8.958;2022-07-23T15:59:44;3.63;;;3.33;;
17228;SDS011;8731;50.364;8.958;2022-07-23T16:04:06;4.13;;;3.20;;
17228;SDS011;8731;50.364;8.958;2022-07-23T16:08:30;3.40;;;2.90;;
17228;SDS011;8731;50.364;8.958;2022-07-23T16:12:53;3.07;;;2.80;;
17228;SDS011;8731;50.364;8.958;2022-07-23T16:17:15;2.83;;;2.63;;
17228;SDS011;8731;50.364;8.958;2022-07-23T16:21:38;4.60;;;3.30;;
17228;SDS011;8731;50.364;8.958;2022-07-23T16:26:01;4.40;;;4.00;;
17228;SDS011;8731;50.364;8.958;2022-07-23T16:30:24;4.93;;;3.47;;
17228;SDS011;8731;50.364;8.958;2022-07-23T16:34:46;3.17;;;2.70;;
17228;SDS011;8731;50.364;8.958;2022-07-23T16:39:08;3.37;;;2.50;;
17228;SDS011;8731;50.364;8.958;2022-07-23T16:43:32;5.83;;;5.10;;
17228;SDS011;8731;50.364;8.958;2022-07-23T16:47:56;3.83;;;3.00;;
17228;SDS011;8731;50.364;8.958;2022-07-23T16:52:19;3.03;;;2.83;;
17228;SDS011;8731;50.364;8.958;2022-07-23T16:56:41;3.10;;;2.80;;
17228;SDS011;8731;50.364;8.958;2022-07-23T17:01:05;2.80;;;2.60;;
17228;SDS011;8731;50.364;8.958;2022-07-23T17:05:28;3.70;;;3.27;;
17228;SDS011;8731;50.364;8.958;2022-07-23T17:09:50;4.23;;;2.87;;
17228;SDS011;8731;50.364;8.958;2022-07-23T17:14:13;3.57;;;3.20;;
17228;SDS011;8731;50.364;8.958;2022-07-23T17:18:36;3.13;;;2.80;;
17228;SDS011;8731;50.364;8.958;2022-07-23T17:22:59;2.60;;;2.40;;
17228;SDS011;8731;50.364;8.958;2022-07-23T17:27:21;3.10;;;2.83;;
17228;SDS011;8731;50.364;8.958;2022-07-23T17:31:44;4.23;;;2.73;;
17228;SDS011;8731;50.364;8.958;2022-07-23T17:36:08;5.57;;;2.93;;
17228;SDS011;8731;50.364;8.958;2022-07-23T17:40:30;2.97;;;2.77;;
17228;SDS011;8731;50.364;8.958;2022-07-23T17:44:54;3.07;;;2.73;;
17228;SDS011;8731;50.364;8.958;2022-07-23T17:49:16;3.70;;;2.77;;
17228;SDS011;8731;50.364;8.958;2022-07-23T17:53:39;3.27;;;2.80;;
17228;SDS011;8731;50.364;8.958;2022-07-23T17:58:02;4.30;;;2.83;;
17228;SDS011;8731;50.364;8.958;2022-07-23T18:02:24;5.80;;;3.90;;
17228;SDS011;8731;50.364;8.958;2022-07-23T18:06:46;3.50;;;3.10;;
17228;SDS011;8731;50.364;8.958;2022-07-23T18:11:12;4.60;;;3.30;;
17228;SDS011;8731;50.364;8.958;2022-07-23T18:15:34;4.87;;;3.77;;
17228;SDS011;8731;50.364;8.958;2022-07-23T18:19:57;4.73;;;3.50;;
17228;SDS011;8731;50.364;8.958;2022-07-23T18:24:19;5.17;;;3.10;;
17228;SDS011;8731;50.364;8.958;2022-07-23T18:28:46;4.03;;;2.70;;
17228;SDS011;8731;50.364;8.958;2022-07-23T18:33:08;3.93;;;3.00;;
17228;SDS011;8731;50.364;8.958;2022-07-23T18:37:32;4.87;;;2.53;;
17228;SDS011;8731;50.364;8.958;2022-07-23T18:41:56;3.70;;;2.83;;
17228;SDS011;8731;50.364;8.958;2022-07-23T18:46:20;3.47;;;2.90;;
17228;SDS011;8731;50.364;8.958;2022-07-23T18:50:42;3.07;;;2.57;;
17228;SDS011;8731;50.364;8.958;2022-07-23T18:55:06;3.90;;;3.30;;
17228;SDS011;8731;50.364;8.958;2022-07-23T18:59:29;3.90;;;3.00;;
17228;SDS011;8731;50.364;8.958;2022-07-23T19:03:53;5.83;;;3.20;;
17228;SDS011;8731;50.364;8.958;2022-07-23T19:08:15;9.70;;;3.07;;
17228;SDS011;8731;50.364;8.958;2022-07-23T19:12:38;6.73;;;3.00;;
17228;SDS011;8731;50.364;8.958;2022-07-23T19:17:00;9.77;;;3.10;;
17228;SDS011;8731;50.364;8.958;2022-07-23T19:21:24;3.80;;;2.77;;
17228;SDS011;8731;50.364;8.958;2022-07-23T19:25:46;9.77;;;3.60;;
17228;SDS011;8731;50.364;8.958;2022-07-23T19:30:09;6.53;;;3.20;;
17228;SDS011;8731;50.364;8.958;2022-07-23T19:34:33;4.20;;;3.30;;
17228;SDS011;8731;50.364;8.958;2022-07-23T19:38:57;4.73;;;2.97;;
17228;SDS011;8731;50.364;8.958;2022-07-23T19:43:19;3.43;;;2.73;;
17228;SDS011;8731;50.364;8.958;2022-07-23T19:47:41;4.33;;;3.30;;
17228;SDS011;8731;50.364;8.958;2022-07-23T19:52:05;5.67;;;3.43;;
17228;SDS011;8731;50.364;8.958;2022-07-23T19:56:29;3.30;;;3.00;;
17228;SDS011;8731;50.364;8.958;2022-07-23T20:00:52;2.93;;;2.73;;
17228;SDS011;8731;50.364;8.958;2022-07-23T20:05:14;4.83;;;3.30;;
17228;SDS011;8731;50.364;8.958;2022-07-23T20:09:37;3.33;;;3.03;;
17228;SDS011;8731;50.364;8.958;2022-07-23T20:14:01;6.53;;;3.17;;
17228;SDS011;8731;50.364;8.958;2022-07-23T20:18:23;5.77;;;3.20;;
17228;SDS011;8731;50.364;8.958;2022-07-23T20:22:48;4.93;;;3.60;;
17228;SDS011;8731;50.364;8.958;2022-07-23T20:27:10;4.23;;;3.70;;
17228;SDS011;8731;50.364;8.958;2022-07-23T20:31:34;4.67;;;3.97;;
17228;SDS011;8731;50.364;8.958;2022-07-23T20:35:56;4.00;;;3.60;;
17228;SDS011;8731;50.364;8.958;2022-07-23T20:40:18;5.70;;;4.00;;
17228;SDS011;8731;50.364;8.958;2022-07-23T20:44:41;3.60;;;3.30;;
17228;SDS011;8731;50.364;8.958;2022-07-23T20:49:05;4.73;;;3.23;;
17228;SDS011;8731;50.364;8.958;2022-07-23T20:53:28;5.17;;;3.70;;
17228;SDS011;8731;50.364;8.958;2022-07-23T20:57:51;4.27;;;3.87;;
17228;SDS011;8731;50.364;8.958;2022-07-23T21:02:13;3.83;;;3.40;;
17228;SDS011;8731;50.364;8.958;2022-07-23T21:06:37;3.97;;;3.30;;
17228;SDS011;8731;50.364;8.958;2022-07-23T21:10:59;5.80;;;3.70;;
17228;SDS011;8731;50.364;8.958;2022-07-23T21:15:22;4.23;;;3.27;;
17228;SDS011;8731;50.364;8.958;2022-07-23T21:19:45;6.50;;;3.37;;
17228;SDS011;8731;50.364;8.958;2022-07-23T21:24:09;4.53;;;3.13;;
17228;SDS011;8731;50.364;8.958;2022-07-23T21:28:31;4.43;;;3.10;;
17228;SDS011;8731;50.364;8.958;2022-07-23T21:32:53;4.93;;;3.17;;
17228;SDS011;8731;50.364;8.958;2022-07-23T21:37:15;5.23;;;3.30;;
17228;SDS011;8731;50.364;8.958;2022-07-23T21:41:39;4.13;;;3.47;;
17228;SDS011;8731;50.364;8.958;2022-07-23T21:46:02;6.43;;;4.03;;
17228;SDS011;8731;50.364;8.958;2022-07-23T21:50:25;5.07;;;3.47;;
17228;SDS011;8731;50.364;8.958;2022-07-23T21:54:47;4.23;;;3.10;;
17228;SDS011;8731;50.364;8.958;2022-07-23T21:59:11;3.60;;;3.30;;
17228;SDS011;8731;50.364;8.958;2022-07-23T22:03:33;3.40;;;2.90;;
17228;SDS011;8731;50.364;8.958;2022-07-23T22:07:55;5.73;;;3.50;;
17228;SDS011;8731;50.364;8.958;2022-07-23T22:12:18;5.10;;;3.60;;
17228;SDS011;8731;50.364;8.958;2022-07-23T22:16:41;5.07;;;3.67;;
17228;SDS011;8731;50.364;8.958;2022-07-23T22:21:04;5.47;;;3.60;;
17228;SDS011;8731;50.364;8.958;2022-07-23T22:25:26;5.23;;;3.80;;
17228;SDS011;8731;50.364;8.958;2022-07-23T22:29:49;4.90;;;3.33;;
17228;SDS011;8731;50.364;8.958;2022-07-23T22:34:12;5.57;;;3.60;;
17228;SDS011;8731;50.364;8.958;2022-07-23T22:38:35;4.63;;;3.90;;
17228;SDS011;8731;50.364;8.958;2022-07-23T22:42:57;3.40;;;3.00;;
17228;SDS011;8731;50.364;8.958;2022-07-23T22:47:19;3.70;;;3.00;;
17228;SDS011;8731;50.364;8.958;2022-07-23T22:51:43;5.07;;;3.00;;
17228;SDS011;8731;50.364;8.958;2022-07-23T22:56:05;4.93;;;3.20;;
17228;SDS011;8731;50.364;8.958;2022-07-23T23:00:28;3.37;;;3.03;;
17228;SDS011;8731;50.364;8.958;2022-07-23T23:04:51;4.67;;;3.10;;
17228;SDS011;8731;50.364;8.958;2022-07-23T23:09:14;3.60;;;3.20;;
17228;SDS011;8731;50.364;8.958;2022-07-23T23:13:36;3.57;;;3.20;;
17228;SDS011;8731;50.364;8.958;2022-07-23T23:17:59;4.50;;;3.40;;
17228;SDS011;8731;50.364;8.958;2022-07-23T23:22:21;3.83;;;3.07;;
17228;SDS011;8731;50.364;8.958;2022-07-23T23:26:45;4.60;;;3.47;;
17228;SDS011;8731;50.364;8.958;2022-07-23T23:31:07;3.63;;;3.27;;
17228;SDS011;8731;50.364;8.958;2022-07-23T23:35:29;6.37;;;4.00;;
17228;SDS011;8731;50.364;8.958;2022-07-23T23:39:52;5.30;;;4.00;;
17228;SDS011;8731;50.364;8.958;2022-07-23T23:44:15;4.77;;;3.13;;
17228;SDS011;8731;50.364;8.958;2022-07-23T23:48:41;4.03;;;3.50;;
17228;SDS011;8731;50.364;8.958;2022-07-23T23:53:03;3.87;;;3.50;;
17228;SDS011;8731;50.364;8.958;2022-07-23T23:57:25;6.20;;;3.93;;
